createdAt,value
2019-02-04T00:00:48.159Z,5.30
2019-02-04T00:03:20.496Z,5.20
2019-02-04T00:05:50.032Z,4.97
2019-02-04T00:08:19.616Z,4.93
2019-02-04T00:10:49.238Z,5.27
2019-02-04T00:13:18.749Z,5.33
2019-02-04T00:15:48.293Z,5.60
2019-02-04T00:18:17.896Z,5.50
2019-02-04T00:20:47.359Z,6.00
2019-02-04T00:23:16.732Z,6.77
2019-02-04T00:25:46.273Z,6.93
2019-02-04T00:28:15.702Z,6.90
2019-02-04T00:30:46.808Z,6.83
2019-02-04T00:33:16.242Z,7.37
2019-02-04T00:35:45.733Z,6.90
2019-02-04T00:38:15.530Z,6.70
2019-02-04T00:40:44.987Z,6.50
2019-02-04T00:43:14.444Z,6.63
2019-02-04T00:45:43.916Z,6.33
2019-02-04T00:48:13.357Z,6.47
2019-02-04T00:50:42.976Z,6.80
2019-02-04T00:53:12.506Z,7.33
2019-02-04T00:55:42.102Z,7.00
2019-02-04T00:58:11.651Z,6.60
2019-02-04T01:00:41.111Z,7.20
2019-02-04T01:03:11.514Z,7.13
2019-02-04T01:05:41.296Z,6.97
2019-02-04T01:08:11.963Z,7.10
2019-02-04T01:10:41.578Z,7.90
2019-02-04T01:13:11.201Z,7.30
2019-02-04T01:15:40.741Z,7.43
2019-02-04T01:18:10.183Z,7.23
2019-02-04T01:20:40.157Z,7.30
2019-02-04T01:23:09.583Z,7.07
2019-02-04T01:25:39.159Z,7.20
2019-02-04T01:28:10.167Z,7.70
2019-02-04T01:30:39.730Z,7.70
2019-02-04T01:33:09.467Z,7.67
2019-02-04T01:35:39.238Z,7.77
2019-02-04T01:38:08.670Z,7.57
2019-02-04T01:40:38.141Z,8.07
2019-02-04T01:43:07.717Z,8.37
2019-02-04T01:45:37.256Z,8.47
2019-02-04T01:48:06.966Z,8.50
2019-02-04T01:50:36.434Z,8.00
2019-02-04T01:53:05.960Z,8.20
2019-02-04T01:55:35.571Z,9.40
2019-02-04T01:58:05.208Z,9.10
2019-02-04T02:00:35.824Z,9.33
2019-02-04T02:03:05.346Z,10.00
2019-02-04T02:05:35.263Z,10.30
2019-02-04T02:08:04.847Z,10.83
2019-02-04T02:10:34.886Z,10.43
2019-02-04T02:13:04.427Z,10.90
2019-02-04T02:15:34.385Z,11.67
2019-02-04T02:18:03.922Z,11.83
2019-02-04T02:20:33.467Z,11.03
2019-02-04T02:23:04.829Z,12.43
2019-02-04T02:25:34.315Z,10.87
2019-02-04T02:28:04.809Z,12.03
2019-02-04T02:30:34.488Z,12.30
2019-02-04T02:33:03.996Z,12.60
2019-02-04T02:35:33.478Z,12.23
2019-02-04T02:38:02.932Z,12.17
2019-02-04T02:40:33.695Z,12.53
2019-02-04T02:43:03.677Z,12.83
2019-02-04T02:45:33.275Z,13.33
2019-02-04T02:48:02.719Z,12.50
2019-02-04T02:50:32.774Z,12.70
2019-02-04T02:53:02.893Z,12.60
2019-02-04T02:55:32.446Z,12.27
2019-02-04T02:58:01.949Z,13.03
2019-02-04T03:00:31.674Z,12.23
2019-02-04T03:03:01.286Z,12.47
2019-02-04T03:05:30.916Z,12.80
2019-02-04T03:08:00.422Z,12.60
2019-02-04T03:10:31.262Z,12.10
2019-02-04T03:13:00.824Z,12.77
2019-02-04T03:15:30.382Z,11.97
2019-02-04T03:17:59.827Z,12.33
2019-02-04T03:20:29.376Z,12.70
2019-02-04T03:22:58.884Z,11.83
2019-02-04T03:25:28.582Z,11.87
2019-02-04T03:27:58.027Z,11.83
2019-02-04T03:30:29.922Z,11.17
2019-02-04T03:32:59.358Z,10.80
2019-02-04T03:35:28.939Z,11.93
2019-02-04T03:37:59.043Z,11.47
2019-02-04T03:40:30.486Z,11.67
2019-02-04T03:43:00.098Z,10.57
2019-02-04T03:45:29.606Z,11.47
2019-02-04T03:48:06.123Z,11.47
2019-02-04T03:50:30.292Z,10.53
2019-02-04T03:52:59.923Z,11.67
2019-02-04T03:55:29.521Z,11.27
2019-02-04T03:57:59.186Z,11.30
2019-02-04T04:00:31.968Z,10.93
2019-02-04T04:03:01.584Z,11.67
2019-02-04T04:05:31.061Z,11.13
2019-02-04T04:08:00.649Z,11.67
2019-02-04T04:10:30.242Z,12.47
2019-02-04T04:12:59.869Z,12.23
2019-02-04T04:15:31.252Z,12.33
2019-02-04T04:18:01.223Z,12.27
2019-02-04T04:20:30.771Z,12.93
2019-02-04T04:23:00.387Z,12.50
2019-02-04T04:25:31.392Z,12.80
2019-02-04T04:28:00.938Z,12.60
2019-02-04T04:30:30.502Z,12.70
2019-02-04T04:33:00.062Z,13.37
2019-02-04T04:35:29.605Z,13.63
2019-02-04T04:37:59.078Z,14.17
2019-02-04T04:40:28.666Z,13.47
2019-02-04T04:42:58.817Z,13.23
2019-02-04T04:45:28.398Z,13.03
2019-02-04T04:47:58.052Z,14.77
2019-02-04T04:50:27.570Z,14.07
2019-02-04T04:52:57.043Z,14.03
2019-02-04T04:55:27.109Z,14.87
2019-02-04T04:57:57.072Z,15.03
2019-02-04T05:00:31.444Z,15.47
2019-02-04T05:03:01.183Z,14.90
2019-02-04T05:05:30.673Z,16.63
2019-02-04T05:08:00.220Z,15.93
2019-02-04T05:10:29.645Z,16.37
2019-02-04T05:12:59.190Z,17.23
2019-02-04T05:15:29.192Z,16.43
2019-02-04T05:17:58.664Z,15.67
2019-02-04T05:20:28.218Z,17.30
2019-02-04T05:22:57.902Z,15.97
2019-02-04T05:25:27.401Z,17.30
2019-02-04T05:27:57.236Z,17.17
2019-02-04T05:30:26.858Z,17.97
2019-02-04T05:32:56.492Z,17.17
2019-02-04T05:35:27.718Z,16.43
2019-02-04T05:37:57.295Z,16.90
2019-02-04T05:40:26.842Z,18.87
2019-02-04T05:42:56.391Z,17.87
2019-02-04T05:45:27.580Z,19.37
2019-02-04T05:47:57.132Z,17.97
2019-02-04T05:50:26.613Z,18.63
2019-02-04T05:52:56.117Z,18.97
2019-02-04T05:55:25.890Z,19.07
2019-02-04T05:57:55.370Z,19.30
2019-02-04T06:00:34.161Z,18.77
2019-02-04T06:03:03.789Z,19.50
2019-02-04T06:05:33.406Z,19.30
2019-02-04T06:08:03.376Z,20.00
2019-02-04T06:10:32.837Z,19.23
2019-02-04T06:13:02.390Z,20.27
2019-02-04T06:15:33.369Z,20.07
2019-02-04T06:18:03.012Z,21.27
2019-02-04T06:20:32.594Z,20.87
2019-02-04T06:23:03.712Z,20.43
2019-02-04T06:25:33.307Z,20.60
2019-02-04T06:28:02.848Z,20.23
2019-02-04T06:30:32.435Z,20.17
2019-02-04T06:33:01.977Z,19.53
2019-02-04T06:35:33.264Z,19.47
2019-02-04T06:38:02.822Z,19.90
2019-02-04T06:40:32.184Z,21.33
2019-02-04T06:43:01.584Z,20.07
2019-02-04T06:45:31.173Z,18.97
2019-02-04T06:48:00.951Z,19.03
2019-02-04T06:50:30.440Z,18.77
2019-02-04T06:52:59.967Z,17.93
2019-02-04T06:55:32.100Z,18.10
2019-02-04T06:58:01.721Z,17.50
2019-02-04T07:00:31.315Z,18.07
2019-02-04T07:03:01.443Z,16.90
2019-02-04T07:05:30.894Z,15.87
2019-02-04T07:08:00.395Z,16.90
2019-02-04T07:10:29.885Z,16.53
2019-02-04T07:12:59.445Z,15.10
2019-02-04T07:15:28.953Z,15.27
2019-02-04T07:18:01.757Z,15.57
2019-02-04T07:20:30.107Z,14.57
2019-02-04T07:22:59.726Z,13.93
2019-02-04T07:25:29.406Z,14.17
2019-02-04T07:27:58.950Z,13.73
2019-02-04T07:30:28.743Z,13.43
2019-02-04T07:32:59.939Z,13.57
2019-02-04T07:35:29.445Z,13.10
2019-02-04T07:38:00.703Z,14.33
2019-02-04T07:40:32.519Z,14.40
2019-02-04T07:43:02.070Z,14.43
2019-02-04T07:45:31.911Z,14.20
2019-02-04T07:48:01.370Z,14.23
2019-02-04T07:50:30.844Z,14.27
2019-02-04T07:53:00.482Z,13.73
2019-02-04T07:55:30.228Z,13.97
2019-02-04T07:57:59.784Z,13.90
2019-02-04T08:00:33.731Z,14.67
2019-02-04T08:03:03.445Z,12.43
2019-02-04T08:05:33.153Z,14.00
2019-02-04T08:08:04.401Z,13.53
2019-02-04T08:10:33.998Z,12.30
2019-02-04T08:13:04.031Z,12.43
2019-02-04T08:15:35.948Z,12.87
2019-02-04T08:18:07.431Z,13.17
2019-02-04T08:20:37.184Z,12.20
2019-02-04T08:23:06.707Z,11.80
2019-02-04T08:25:36.253Z,12.43
2019-02-04T08:28:05.911Z,12.13
2019-02-04T08:30:38.290Z,12.57
2019-02-04T08:33:08.299Z,12.03
2019-02-04T08:35:37.822Z,12.50
2019-02-04T08:38:09.910Z,11.77
2019-02-04T08:40:39.630Z,12.90
2019-02-04T08:43:09.172Z,12.13
2019-02-04T08:45:38.641Z,11.47
2019-02-04T08:48:08.171Z,11.80
2019-02-04T08:50:37.804Z,11.97
2019-02-04T08:53:07.633Z,11.60
2019-02-04T08:55:37.678Z,12.17
2019-02-04T08:58:07.620Z,12.10
2019-02-04T09:00:37.351Z,11.97
2019-02-04T09:03:06.855Z,10.57
2019-02-04T09:05:36.461Z,11.80
2019-02-04T09:08:05.977Z,11.67
2019-02-04T09:10:37.438Z,12.20
2019-02-04T09:13:06.869Z,11.50
2019-02-04T09:15:36.409Z,11.20
2019-02-04T09:18:06.015Z,10.40
2019-02-04T09:20:35.500Z,11.77
2019-02-04T09:23:06.647Z,10.73
2019-02-04T09:25:36.639Z,11.57
2019-02-04T09:28:06.214Z,9.57
2019-02-04T09:30:36.128Z,10.73
2019-02-04T09:33:05.834Z,9.73
2019-02-04T09:35:35.376Z,10.17
2019-02-04T09:38:05.008Z,10.97
2019-02-04T09:40:37.442Z,10.60
2019-02-04T09:43:07.341Z,10.53
2019-02-04T09:45:37.114Z,9.83
2019-02-04T09:48:12.399Z,10.37
2019-02-04T09:50:44.375Z,9.87
2019-02-04T09:53:15.566Z,9.93
2019-02-04T09:55:45.207Z,9.83
2019-02-04T09:58:14.743Z,10.57
2019-02-04T10:00:44.433Z,11.37
2019-02-04T10:03:14.031Z,9.40
2019-02-04T10:05:43.558Z,8.87
2019-02-04T10:08:13.109Z,9.43
2019-02-04T10:10:42.643Z,9.57
2019-02-04T10:13:12.304Z,10.00
2019-02-04T10:15:45.980Z,8.07
2019-02-04T10:18:15.731Z,8.47
2019-02-04T10:20:45.306Z,9.67
2019-02-04T10:23:14.828Z,8.93
2019-02-04T10:25:44.444Z,8.50
2019-02-04T10:28:15.620Z,8.80
2019-02-04T10:30:45.446Z,8.00
2019-02-04T10:33:15.524Z,9.23
2019-02-04T10:35:45.147Z,7.73
2019-02-04T10:38:16.511Z,9.30
2019-02-04T10:40:45.745Z,9.33
2019-02-04T10:43:15.272Z,9.60
2019-02-04T10:45:44.890Z,8.50
2019-02-04T10:48:14.397Z,9.27
2019-02-04T10:50:46.627Z,9.17
2019-02-04T10:53:15.244Z,9.67
2019-02-04T10:55:44.819Z,8.83
2019-02-04T10:58:14.634Z,8.40
2019-02-04T11:00:44.541Z,8.40
2019-02-04T11:03:14.717Z,8.97
2019-02-04T11:05:44.592Z,9.43
2019-02-04T11:08:14.731Z,8.90
2019-02-04T11:10:44.467Z,8.73
2019-02-04T11:13:15.765Z,8.97
2019-02-04T11:15:45.889Z,9.33
2019-02-04T11:18:15.620Z,9.53
2019-02-04T11:20:57.185Z,8.37
2019-02-04T11:23:17.528Z,9.57
2019-02-04T11:25:47.466Z,8.47
2019-02-04T11:28:17.421Z,8.97
2019-02-04T11:30:49.916Z,9.07
2019-02-04T11:33:19.540Z,9.50
2019-02-04T11:35:49.094Z,8.87
2019-02-04T11:38:18.909Z,8.83
2019-02-04T11:40:49.427Z,8.90
2019-02-04T11:43:19.374Z,9.70
2019-02-04T11:45:48.905Z,9.53
2019-02-04T11:48:18.988Z,9.23
2019-02-04T11:50:48.638Z,9.73
2019-02-04T11:53:18.192Z,9.33
2019-02-04T11:55:48.115Z,9.50
2019-02-04T11:58:17.568Z,9.47
2019-02-04T12:00:47.223Z,8.37
2019-02-04T12:03:17.334Z,9.50
2019-02-04T12:05:46.912Z,9.43
2019-02-04T12:08:16.491Z,8.13
2019-02-04T12:10:49.318Z,9.03
2019-02-04T12:13:18.926Z,8.90
2019-02-04T12:15:48.387Z,8.90
2019-02-04T12:18:17.919Z,8.60
2019-02-04T12:20:47.600Z,8.83
2019-02-04T12:23:17.376Z,8.57
2019-02-04T12:25:46.901Z,8.40
2019-02-04T12:28:16.439Z,8.27
2019-02-04T12:30:46.050Z,8.30
2019-02-04T12:33:16.253Z,8.63
2019-02-04T12:35:45.759Z,7.63
2019-02-04T12:38:15.747Z,8.00
2019-02-04T12:40:45.474Z,8.03
2019-02-04T12:43:15.019Z,7.27
2019-02-04T12:45:45.286Z,7.10
2019-02-04T12:48:14.837Z,7.00
2019-02-04T12:50:44.400Z,6.93
2019-02-04T12:53:14.180Z,6.70
2019-02-04T12:55:43.620Z,7.23
2019-02-04T12:58:13.283Z,7.23
2019-02-04T13:00:42.928Z,6.63
2019-02-04T13:03:12.406Z,6.53
2019-02-04T13:05:44.495Z,7.17
2019-02-04T13:08:14.139Z,7.23
2019-02-04T13:10:43.636Z,7.40
2019-02-04T13:13:15.480Z,7.37
2019-02-04T13:15:45.082Z,7.03
2019-02-04T13:18:14.606Z,6.90
2019-02-04T13:20:44.403Z,7.07
2019-02-04T13:23:14.171Z,7.47
2019-02-04T13:25:43.945Z,7.93
2019-02-04T13:28:15.255Z,7.27
2019-02-04T13:30:45.193Z,7.07
2019-02-04T13:33:14.603Z,7.87
2019-02-04T13:35:44.335Z,8.17
2019-02-04T13:38:13.925Z,8.10
2019-02-04T13:40:44.510Z,7.87
2019-02-04T13:43:14.464Z,8.27
2019-02-04T13:45:44.057Z,8.57
2019-02-04T13:48:14.347Z,8.23
2019-02-04T13:50:43.921Z,8.97
2019-02-04T13:53:13.622Z,9.00
2019-02-04T13:55:43.329Z,8.67
2019-02-04T13:58:12.871Z,9.87
2019-02-04T14:00:43.915Z,9.50
2019-02-04T14:03:13.539Z,9.27
2019-02-04T14:05:43.123Z,9.60
2019-02-04T14:08:12.765Z,9.93
2019-02-04T14:10:45.961Z,9.50
2019-02-04T14:13:14.401Z,9.83
2019-02-04T14:15:44.175Z,10.80
2019-02-04T14:18:13.818Z,10.63
2019-02-04T14:20:43.471Z,11.90
2019-02-04T14:23:13.299Z,10.50
2019-02-04T14:25:42.805Z,11.13
2019-02-04T14:28:12.579Z,12.13
2019-02-04T14:30:42.132Z,12.03
2019-02-04T14:33:11.731Z,12.30
2019-02-04T14:35:41.348Z,11.67
2019-02-04T14:38:11.194Z,12.63
2019-02-04T14:40:40.825Z,14.33
2019-02-04T14:43:15.534Z,13.33
2019-02-04T14:46:10.402Z,11.33
2019-02-04T14:48:51.712Z,12.27
2019-02-04T14:51:33.143Z,13.13
2019-02-04T14:54:22.226Z,13.63
2019-02-04T14:57:03.843Z,14.37
2019-02-04T14:59:34.451Z,13.47
2019-02-04T15:02:13.039Z,14.40
2019-02-04T15:04:54.871Z,13.73
2019-02-04T15:07:36.346Z,12.67
2019-02-04T15:10:25.115Z,14.50
2019-02-04T15:13:08.429Z,14.93
2019-02-04T15:15:59.195Z,13.67
2019-02-04T15:18:40.599Z,13.77
2019-02-04T15:21:27.830Z,14.33
2019-02-04T15:24:08.468Z,13.77
2019-02-04T15:26:55.564Z,14.23
2019-02-04T15:29:28.083Z,15.40
2019-02-04T15:32:12.669Z,13.00
2019-02-04T15:35:05.003Z,15.10
2019-02-04T15:37:40.079Z,15.60
2019-02-04T15:40:33.860Z,15.43
2019-02-04T15:43:24.143Z,14.27
2019-02-04T15:45:59.632Z,14.83
2019-02-04T15:48:32.297Z,16.67
2019-02-04T15:51:10.543Z,14.63
2019-02-04T15:53:40.007Z,13.33
2019-02-04T15:56:09.997Z,15.70
2019-02-04T15:58:39.874Z,15.50
2019-02-04T16:01:09.428Z,14.97
2019-02-04T16:03:40.386Z,16.20
2019-02-04T16:06:09.913Z,17.17
2019-02-04T16:08:39.450Z,16.50
2019-02-04T16:11:09.168Z,15.10
2019-02-04T16:13:38.788Z,15.07
2019-02-04T16:16:08.299Z,14.90
2019-02-04T16:18:37.936Z,15.33
2019-02-04T16:21:07.552Z,15.30
2019-02-04T16:23:37.112Z,13.63
2019-02-04T16:26:06.792Z,14.70
2019-02-04T16:28:36.283Z,13.80
2019-02-04T16:31:05.940Z,13.87
2019-02-04T16:33:36.943Z,13.63
2019-02-04T16:36:06.467Z,13.17
2019-02-04T16:38:36.006Z,13.47
2019-02-04T16:41:05.607Z,13.77
2019-02-04T16:43:35.125Z,12.10
2019-02-04T16:46:05.299Z,12.73
2019-02-04T16:48:34.780Z,14.03
2019-02-04T16:51:11.692Z,12.47
2019-02-04T16:53:35.588Z,15.03
2019-02-04T16:56:06.130Z,14.17
2019-02-04T16:58:35.611Z,15.90
2019-02-04T17:01:05.896Z,15.63
2019-02-04T17:03:35.393Z,14.63
2019-02-04T17:06:05.423Z,14.53
2019-02-04T17:08:35.174Z,14.77
2019-02-04T17:11:04.891Z,15.57
2019-02-04T17:13:34.458Z,15.33
2019-02-04T17:16:04.103Z,14.87
2019-02-04T17:18:33.605Z,16.63
2019-02-04T17:21:03.160Z,15.70
2019-02-04T17:23:45.887Z,16.53
2019-02-04T17:26:15.546Z,15.17
2019-02-04T17:28:45.012Z,14.17
2019-02-04T17:31:14.648Z,16.53
2019-02-04T17:33:44.216Z,14.87
2019-02-04T17:36:14.923Z,15.90
2019-02-04T17:38:44.490Z,14.93
2019-02-04T17:41:14.099Z,15.53
2019-02-04T17:43:43.579Z,16.17
2019-02-04T17:46:13.270Z,15.50
2019-02-04T17:48:43.315Z,16.63
2019-02-04T17:51:13.099Z,15.17
2019-02-04T17:53:42.641Z,15.73
2019-02-04T17:56:12.474Z,15.57
2019-02-04T17:58:41.979Z,16.07
2019-02-04T18:01:11.513Z,15.70
2019-02-04T18:03:42.909Z,15.10
2019-02-04T18:06:13.963Z,18.23
2019-02-04T18:08:43.478Z,16.87
2019-02-04T18:11:13.026Z,17.37
2019-02-04T18:13:42.498Z,17.67
2019-02-04T18:16:12.128Z,17.97
2019-02-04T18:18:41.678Z,18.37
2019-02-04T18:21:11.232Z,18.53
2019-02-04T18:23:46.140Z,17.60
2019-02-04T18:26:12.040Z,19.40
2019-02-04T18:28:42.057Z,20.37
2019-02-04T18:31:11.727Z,19.67
2019-02-04T18:33:41.271Z,18.77
2019-02-04T18:36:10.981Z,19.60
2019-02-04T18:38:41.999Z,20.00
2019-02-04T18:41:11.985Z,21.70
2019-02-04T18:43:41.749Z,21.67
2019-02-04T18:46:11.222Z,21.57
2019-02-04T18:48:42.416Z,21.53
2019-02-04T18:51:11.845Z,22.33
2019-02-04T18:53:41.371Z,21.27
2019-02-04T18:56:11.257Z,22.70
2019-02-04T18:58:40.791Z,23.60
2019-02-04T19:01:10.292Z,22.30
2019-02-04T19:03:40.051Z,21.27
2019-02-04T19:06:11.094Z,22.47
2019-02-04T19:08:40.677Z,22.03
2019-02-04T19:11:10.285Z,21.80
2019-02-04T19:13:39.816Z,21.33
2019-02-04T19:16:09.434Z,20.77
2019-02-04T19:18:38.885Z,20.93
2019-02-04T19:21:08.479Z,20.13
2019-02-04T19:23:39.491Z,20.97
2019-02-04T19:26:08.967Z,19.87
2019-02-04T19:28:38.427Z,20.10
2019-02-04T19:31:10.209Z,19.57
2019-02-04T19:33:39.810Z,19.13
2019-02-04T19:36:09.375Z,18.37
2019-02-04T19:38:39.159Z,18.03
2019-02-04T19:41:08.732Z,17.47
2019-02-04T19:43:38.362Z,17.93
2019-02-04T19:46:07.888Z,17.63
2019-02-04T19:48:38.113Z,19.43
2019-02-04T19:51:07.629Z,19.47
2019-02-04T19:53:37.403Z,19.77
2019-02-04T19:56:07.063Z,20.03
2019-02-04T19:58:36.502Z,20.50
2019-02-04T20:01:06.174Z,19.47
2019-02-04T20:03:37.097Z,18.57
2019-02-04T20:06:07.023Z,20.43
2019-02-04T20:08:36.929Z,20.60
2019-02-04T20:11:06.829Z,20.07
2019-02-04T20:13:36.464Z,19.27
2019-02-04T20:16:06.339Z,18.73
2019-02-04T20:18:35.915Z,20.70
2019-02-04T20:21:05.485Z,22.00
2019-02-04T20:23:35.396Z,21.43
2019-02-04T20:26:07.878Z,21.17
2019-02-04T20:28:37.482Z,20.40
2019-02-04T20:31:06.989Z,21.77
2019-02-04T20:33:38.021Z,21.97
2019-02-04T20:36:07.859Z,22.43
2019-02-04T20:38:37.403Z,22.57
2019-02-04T20:41:06.952Z,21.43
2019-02-04T20:43:36.423Z,22.83
2019-02-04T20:46:06.021Z,22.20
2019-02-04T20:48:35.620Z,20.87
2019-02-04T20:51:05.636Z,21.47
2019-02-04T20:53:36.576Z,19.37
2019-02-04T20:56:06.112Z,22.13
2019-02-04T20:58:35.592Z,23.33
2019-02-04T21:01:05.813Z,22.90
2019-02-04T21:03:37.179Z,21.57
2019-02-04T21:06:06.706Z,23.10
2019-02-04T21:08:38.417Z,23.20
2019-02-04T21:11:07.352Z,21.53
2019-02-04T21:13:36.915Z,22.50
2019-02-04T21:16:06.546Z,22.47
2019-02-04T21:18:36.138Z,23.07
2019-02-04T21:21:05.665Z,22.83
2019-02-04T21:23:35.144Z,24.23
2019-02-04T21:26:07.043Z,24.37
2019-02-04T21:28:36.239Z,24.33
2019-02-04T21:31:05.772Z,25.50
2019-02-04T21:33:35.784Z,26.30
2019-02-04T21:36:05.514Z,25.07
2019-02-04T21:38:35.125Z,25.60
2019-02-04T21:41:04.799Z,25.80
2019-02-04T21:43:34.274Z,26.60
2019-02-04T21:46:03.794Z,26.67
2019-02-04T21:48:33.634Z,28.73
2019-02-04T21:51:03.385Z,27.80
2019-02-04T21:53:32.870Z,25.57
2019-02-04T21:56:02.321Z,28.60
2019-02-04T21:58:31.827Z,28.00
2019-02-04T22:01:01.272Z,27.67
2019-02-04T22:03:31.054Z,28.27
2019-02-04T22:06:00.570Z,27.67
2019-02-04T22:08:30.157Z,24.07
2019-02-04T22:10:59.800Z,29.77
2019-02-04T22:13:29.266Z,30.37
2019-02-04T22:15:58.722Z,29.30
2019-02-04T22:18:28.699Z,29.60
2019-02-04T22:20:58.213Z,30.27
2019-02-04T22:23:27.758Z,28.93
2019-02-04T22:25:57.602Z,30.73
2019-02-04T22:28:27.191Z,30.73
2019-02-04T22:30:58.555Z,30.07
2019-02-04T22:33:28.034Z,32.33
2019-02-04T22:35:57.491Z,31.50
2019-02-04T22:38:26.938Z,31.63
2019-02-04T22:40:56.413Z,32.37
2019-02-04T22:43:25.876Z,31.40
2019-02-04T22:45:55.321Z,32.67
2019-02-04T22:48:25.178Z,31.50
2019-02-04T22:50:54.609Z,31.80
2019-02-04T22:53:24.081Z,32.77
2019-02-04T22:55:53.661Z,32.20
2019-02-04T22:58:23.224Z,32.27
2019-02-04T23:00:58.781Z,33.30
2019-02-04T23:03:29.942Z,34.60
2019-02-04T23:05:59.476Z,34.87
2019-02-04T23:08:29.094Z,34.03
2019-02-04T23:10:58.614Z,34.50
2019-02-04T23:13:28.125Z,34.73
2019-02-04T23:15:58.039Z,35.67
2019-02-04T23:18:27.610Z,35.93
2019-02-04T23:20:57.308Z,35.97
2019-02-04T23:23:27.011Z,36.20
2019-02-04T23:25:56.439Z,35.57
2019-02-04T23:28:26.330Z,36.20
2019-02-04T23:30:55.939Z,36.03
2019-02-04T23:33:33.966Z,39.10
2019-02-04T23:35:58.071Z,37.23
2019-02-04T23:38:27.761Z,36.33
2019-02-04T23:40:57.177Z,39.00
2019-02-04T23:43:26.812Z,36.97
2019-02-04T23:45:56.210Z,37.93
2019-02-04T23:48:25.708Z,38.10
2019-02-04T23:50:55.323Z,37.10
2019-02-04T23:53:24.766Z,38.00
2019-02-04T23:55:55.010Z,38.17
2019-02-04T23:58:24.526Z,39.60
